Time;durP1;ratioP1;P1;durP2;ratioP2;P2;SDS_P1;SDS_P2;PMS_P1;PMS_P2;Temp;Humidity;BMP_temperature;BMP_pressure;BME280_temperature;BME280_humidity;BME280_pressure;Samples;Min_cycle;Max_cycle;Signal;HPM_P1;HPM_P2
2022/08/05 00:01:30;;;;;;;15.55;8.75;;;;;;;25.93;49.88;99451.13;5091105;28;20191;-57
2022/08/05 00:03:57;;;;;;;16.92;10.25;;;;;;;25.86;50.08;99444.44;5090952;28;20191;-57
2022/08/05 00:06:24;;;;;;;10.10;7.23;;;;;;;25.84;50.53;99451.56;5090537;28;20433;-57
2022/08/05 00:08:51;;;;;;;20.80;9.85;;;;;;;25.82;50.42;99445.53;5091221;28;20198;-57
2022/08/05 00:11:18;;;;;;;12.90;7.97;;;;;;;25.72;50.78;99445.09;5091254;28;20190;-57
2022/08/05 00:13:45;;;;;;;12.03;7.07;;;;;;;25.69;50.85;99439.09;5090141;28;20198;-57
2022/08/05 00:16:14;;;;;;;10.52;7.35;;;;;;;25.66;50.75;99444.50;5090772;28;20187;-57
2022/08/05 00:18:43;;;;;;;9.60;7.05;;;;;;;25.56;50.80;99444.09;5090758;28;20194;-57
2022/08/05 00:21:10;;;;;;;8.63;7.10;;;;;;;25.59;50.74;99443.94;5090834;28;20643;-58
2022/08/05 00:23:38;;;;;;;16.93;8.13;;;;;;;25.55;50.96;99441.50;5090743;28;20194;-57
2022/08/05 00:26:05;;;;;;;10.85;7.40;;;;;;;25.47;51.36;99433.97;5090409;28;20202;-57
2022/08/05 00:28:33;;;;;;;9.50;8.20;;;;;;;25.45;51.45;99446.31;5090463;28;20215;-57
2022/08/05 00:30:59;;;;;;;12.00;8.73;;;;;;;25.46;51.08;99441.91;5090047;28;20497;-57
2022/08/05 00:33:27;;;;;;;9.77;8.27;;;;;;;25.45;51.15;99441.03;5090302;28;20448;-57
2022/08/05 00:35:55;;;;;;;10.40;8.13;;;;;;;25.36;51.47;99446.72;5090289;28;20244;-57
2022/08/05 00:38:22;;;;;;;9.68;8.20;;;;;;;25.28;51.09;99438.31;5090420;28;20191;-57
2022/08/05 00:40:51;;;;;;;10.77;8.35;;;;;;;25.08;51.58;99435.69;5090157;28;20194;-57
2022/08/05 00:43:18;;;;;;;11.50;7.40;;;;;;;25.00;52.00;99428.16;5090317;28;20198;-58
2022/08/05 00:45:46;;;;;;;9.27;7.80;;;;;;;25.12;52.36;99435.50;5090156;28;20194;-58
2022/08/05 00:48:15;;;;;;;9.13;7.97;;;;;;;25.08;52.08;99435.69;5089914;28;20215;-57
2022/08/05 00:50:45;;;;;;;10.80;8.43;;;;;;;25.07;52.32;99429.59;5090269;28;20197;-57
2022/08/05 00:53:12;;;;;;;8.85;7.60;;;;;;;25.07;52.09;99442.75;5090255;28;20194;-58
2022/08/05 00:55:39;;;;;;;8.77;7.20;;;;;;;25.05;52.21;99433.22;5090045;28;20195;-57
2022/08/05 00:58:05;;;;;;;7.90;7.20;;;;;;;25.00;51.76;99436.03;5089831;28;20727;-57
2022/08/05 01:00:32;;;;;;;9.20;7.80;;;;;;;24.94;52.14;99422.31;5090210;28;20191;-57
2022/08/05 01:02:59;;;;;;;12.57;8.13;;;;;;;24.95;51.81;99430.13;5090071;28;20573;-57
2022/08/05 01:05:26;;;;;;;8.63;7.73;;;;;;;24.95;51.92;99429.25;5090198;28;20601;-57
2022/08/05 01:07:55;;;;;;;11.83;7.40;;;;;;;24.92;51.80;99435.50;5089946;28;20222;-57
2022/08/05 01:10:28;;;;;;;8.50;7.60;;;;;;;24.91;51.42;99430.34;5090042;28;20198;-57
2022/08/05 01:13:03;;;;;;;11.07;7.00;;;;;;;24.89;51.10;99440.91;5090190;28;20229;-57
2022/08/05 01:15:37;;;;;;;12.55;7.28;;;;;;;24.85;51.52;99434.06;5089186;28;20528;-57
2022/08/05 01:18:09;;;;;;;9.80;7.57;;;;;;;24.84;51.28;99424.47;5089872;28;20190;-57
2022/08/05 01:20:44;;;;;;;8.43;7.60;;;;;;;24.86;51.14;99422.63;5089948;28;20198;-57
2022/08/05 01:23:20;;;;;;;10.47;7.30;;;;;;;24.82;51.73;99421.06;5089675;28;20661;-57
2022/08/05 01:26:03;;;;;;;10.80;8.00;;;;;;;24.81;51.56;99424.59;5092182;28;20194;-57
2022/08/05 01:28:37;;;;;;;8.53;7.63;;;;;;;24.76;51.46;99431.78;5093957;28;20210;-57
2022/08/05 01:31:09;;;;;;;8.43;7.67;;;;;;;24.67;52.00;99438.28;5093813;28;20668;-57
2022/08/05 01:33:41;;;;;;;8.40;7.60;;;;;;;24.51;52.10;99407.47;5093762;28;20195;-57
2022/08/05 01:36:13;;;;;;;8.77;7.40;;;;;;;24.60;52.27;99434.22;5093670;28;20187;-57
2022/08/05 01:38:41;;;;;;;8.53;7.17;;;;;;;24.60;52.59;99438.63;5093693;28;20669;-57
2022/08/05 01:41:08;;;;;;;10.93;7.25;;;;;;;24.56;53.32;99429.13;5092769;28;20450;-57
2022/08/05 01:43:38;;;;;;;8.47;7.67;;;;;;;24.52;53.10;99438.09;5093672;28;20213;-57
2022/08/05 01:46:06;;;;;;;8.27;7.20;;;;;;;24.40;53.52;99433.31;5093410;28;20665;-58
2022/08/05 01:48:35;;;;;;;8.43;7.57;;;;;;;24.26;53.42;99439.13;5093325;28;20631;-57
2022/08/05 01:51:04;;;;;;;7.53;6.83;;;;;;;24.20;53.27;99434.13;5093720;28;20198;-57
2022/08/05 01:53:33;;;;;;;7.37;6.73;;;;;;;24.14;53.21;99437.00;5093649;28;20643;-57
2022/08/05 01:56:03;;;;;;;10.47;7.47;;;;;;;24.07;53.63;99436.34;5093568;28;20195;-57
2022/08/05 01:58:31;;;;;;;8.97;6.87;;;;;;;24.11;52.58;99423.13;5093147;28;20226;-57
2022/08/05 02:01:00;;;;;;;7.27;6.60;;;;;;;24.05;52.48;99429.47;5093222;28;20191;-57
2022/08/05 02:03:31;;;;;;;7.57;6.87;;;;;;;24.05;52.37;99432.94;5093466;28;20326;-57
2022/08/05 02:05:59;;;;;;;7.63;6.87;;;;;;;24.04;53.04;99436.47;5093201;28;20195;-57
2022/08/05 02:08:26;;;;;;;6.77;6.27;;;;;;;24.06;52.33;99432.00;5093118;28;20268;-57
2022/08/05 02:10:59;;;;;;;8.43;7.03;;;;;;;24.03;52.28;99433.91;5093126;28;20191;-57
2022/08/05 02:13:32;;;;;;;8.43;6.90;;;;;;;23.93;52.54;99428.16;5093054;28;20191;-57
2022/08/05 02:16:04;;;;;;;7.93;6.57;;;;;;;23.90;53.13;99428.28;5093182;28;20206;-57
2022/08/05 02:18:36;;;;;;;8.77;6.60;;;;;;;23.87;53.18;99436.25;5093089;28;20202;-57
2022/08/05 02:21:09;;;;;;;7.37;6.60;;;;;;;23.83;53.01;99429.44;5092915;28;20589;-57
2022/08/05 02:23:40;;;;;;;7.30;6.70;;;;;;;23.78;53.71;99434.00;5093027;28;20201;-57
2022/08/05 02:26:10;;;;;;;8.27;7.47;;;;;;;23.66;53.87;99429.22;5092850;28;20657;-57
2022/08/05 02:28:42;;;;;;;7.87;6.73;;;;;;;23.60;54.29;99421.56;5092692;28;20229;-57
2022/08/05 02:31:14;;;;;;;9.47;7.80;;;;;;;23.61;54.89;99433.78;5092606;28;20191;-57
2022/08/05 02:33:48;;;;;;;16.47;8.30;;;;;;;23.57;54.24;99426.09;5092776;28;20252;-58
2022/08/05 02:36:18;;;;;;;8.07;7.00;;;;;;;23.50;54.70;99425.47;5092108;28;20195;-58
2022/08/05 02:38:48;;;;;;;10.30;7.87;;;;;;;23.44;54.94;99430.94;5092820;28;20244;-58
2022/08/05 02:41:17;;;;;;;12.67;7.33;;;;;;;23.40;54.79;99431.97;5092833;28;20198;-58
2022/08/05 02:43:46;;;;;;;7.57;6.80;;;;;;;23.34;55.08;99429.53;5092652;28;20195;-58
2022/08/05 02:46:15;;;;;;;8.10;7.23;;;;;;;23.10;55.57;99397.19;5092919;28;20599;-58
2022/08/05 02:48:43;;;;;;;7.95;7.28;;;;;;;23.34;55.89;99432.16;5092111;28;20444;-58
2022/08/05 02:51:12;;;;;;;9.90;7.43;;;;;;;23.30;55.58;99433.16;5092284;28;20191;-58
2022/08/05 02:53:39;;;;;;;11.83;7.83;;;;;;;23.23;56.24;99436.94;5092208;28;20696;-58
2022/08/05 02:56:10;;;;;;;9.17;8.23;;;;;;;23.18;55.71;99429.25;5092386;28;20201;-58
2022/08/05 02:58:37;;;;;;;8.50;7.70;;;;;;;23.01;55.80;99400.16;5092365;28;20219;-58
2022/08/05 03:01:04;;;;;;;8.83;7.97;;;;;;;23.07;56.46;99435.78;5092271;28;20728;-58
2022/08/05 03:03:34;;;;;;;8.03;6.70;;;;;;;22.97;56.19;99427.34;5092629;28;20251;-58
2022/08/05 03:06:02;;;;;;;8.07;7.07;;;;;;;22.98;56.18;99430.84;5091939;28;20723;-58
2022/08/05 03:08:29;;;;;;;12.57;8.50;;;;;;;22.85;56.98;99430.44;5092077;28;20241;-58
2022/08/05 03:10:56;;;;;;;8.57;7.63;;;;;;;22.90;57.18;99434.59;5091888;28;20662;-58
2022/08/05 03:13:23;;;;;;;8.17;7.37;;;;;;;22.88;57.16;99425.91;5092005;28;20244;-58
2022/08/05 03:15:50;;;;;;;9.00;8.20;;;;;;;22.91;56.78;99435.44;5091643;28;20190;-58
2022/08/05 03:18:16;;;;;;;8.73;7.27;;;;;;;22.88;56.93;99439.00;5092081;28;20191;-58
2022/08/05 03:20:45;;;;;;;7.87;7.17;;;;;;;22.80;57.08;99434.94;5091891;28;20619;-58
2022/08/05 03:23:12;;;;;;;8.47;7.57;;;;;;;22.72;57.25;99442.22;5091975;28;20191;-58
2022/08/05 03:25:40;;;;;;;7.93;7.20;;;;;;;22.59;57.09;99433.88;5091737;28;20199;-58
2022/08/05 03:28:08;;;;;;;8.10;7.30;;;;;;;22.40;57.25;99416.22;5091488;28;20218;-58
2022/08/05 03:30:36;;;;;;;8.73;7.43;;;;;;;22.51;57.32;99441.13;5091780;28;20187;-58
2022/08/05 03:33:05;;;;;;;8.00;7.30;;;;;;;22.45;57.29;99441.34;5091559;28;20182;-58
2022/08/05 03:35:32;;;;;;;9.10;7.93;;;;;;;22.45;57.43;99440.47;5091520;28;20191;-58
2022/08/05 03:38:02;;;;;;;7.10;6.40;;;;;;;22.42;56.96;99443.19;5091333;28;20282;-58
2022/08/05 03:40:29;;;;;;;7.50;6.80;;;;;;;22.50;57.11;99435.94;5091497;28;20274;-58
2022/08/05 03:42:56;;;;;;;8.67;7.83;;;;;;;22.54;56.99;99435.81;5091472;28;20191;-58
2022/08/05 03:45:22;;;;;;;8.40;6.83;;;;;;;22.54;56.69;99442.81;5091425;28;20202;-58
2022/08/05 03:47:49;;;;;;;7.00;6.23;;;;;;;22.54;56.52;99441.03;5090302;28;20214;-58
2022/08/05 03:50:16;;;;;;;7.50;6.73;;;;;;;22.54;56.37;99441.03;5091425;28;20201;-58
2022/08/05 03:52:52;;;;;;;6.70;6.10;;;;;;;22.59;55.91;99444.38;5091073;28;20199;-57
2022/08/05 03:55:27;;;;;;;6.70;6.20;;;;;;;22.60;55.99;99445.22;5091431;28;20190;-57
2022/08/05 03:57:56;;;;;;;7.72;7.03;;;;;;;22.60;56.16;99450.47;5090554;28;20440;-58
2022/08/05 04:00:28;;;;;;;9.97;6.40;;;;;;;22.64;55.87;99452.94;5091236;28;20195;-58
2022/08/05 04:02:58;;;;;;;7.00;6.50;;;;;;;22.60;56.18;99440.84;5091183;28;20205;-58
2022/08/05 04:05:29;;;;;;;6.93;6.30;;;;;;;22.64;56.38;99439.00;5091021;28;20194;-58
2022/08/05 04:07:56;;;;;;;16.30;6.67;;;;;;;22.67;55.98;99436.28;5090996;28;20231;-58
2022/08/05 04:10:25;;;;;;;7.67;6.83;;;;;;;22.65;56.33;99433.72;5091216;28;20209;-58
2022/08/05 04:12:52;;;;;;;8.87;6.70;;;;;;;22.77;55.55;99433.28;5090854;28;20256;-58
2022/08/05 04:15:19;;;;;;;7.17;6.50;;;;;;;22.81;56.01;99434.91;5090837;28;20190;-57
2022/08/05 04:17:46;;;;;;;7.37;6.43;;;;;;;22.95;55.41;99436.19;5090803;28;20256;-58
2022/08/05 04:20:19;;;;;;;7.90;7.20;;;;;;;22.88;54.99;99406.75;5090526;28;20190;-58
2022/08/05 04:22:46;;;;;;;7.47;6.87;;;;;;;22.96;55.22;99432.66;5090638;28;20191;-57
2022/08/05 04:25:13;;;;;;;6.83;6.17;;;;;;;22.85;55.68;99428.63;5090548;28;20194;-58
2022/08/05 04:27:41;;;;;;;7.70;7.00;;;;;;;22.89;56.05;99425.00;5090744;28;20187;-58
2022/08/05 04:30:09;;;;;;;8.17;7.37;;;;;;;22.79;56.20;99415.78;5090396;28;20248;-57
2022/08/05 04:32:36;;;;;;;9.23;7.07;;;;;;;22.85;56.37;99426.00;5090191;28;20681;-58
2022/08/05 04:35:03;;;;;;;7.83;7.23;;;;;;;22.83;56.06;99426.97;5090272;28;20191;-57
2022/08/05 04:37:31;;;;;;;7.53;6.83;;;;;;;22.80;56.86;99419.22;5090250;28;20195;-57
2022/08/05 04:39:58;;;;;;;8.53;7.73;;;;;;;22.81;56.78;99419.19;5090387;28;20195;-57
2022/08/05 04:42:25;;;;;;;8.68;7.78;;;;;;;22.92;56.42;99427.53;5089461;28;20440;-58
2022/08/05 04:44:53;;;;;;;12.63;7.70;;;;;;;22.96;56.41;99423.06;5090332;28;20676;-58
2022/08/05 04:47:20;;;;;;;10.50;7.40;;;;;;;22.97;56.11;99424.75;5089928;28;20191;-58
2022/08/05 04:49:46;;;;;;;9.30;7.17;;;;;;;22.77;55.82;99401.03;5090239;28;20223;-58
2022/08/05 04:52:13;;;;;;;8.30;6.73;;;;;;;23.06;55.67;99423.56;5090077;28;20198;-58
2022/08/05 04:54:40;;;;;;;8.10;7.30;;;;;;;23.09;55.42;99421.69;5090044;28;20191;-58
2022/08/05 04:57:07;;;;;;;11.47;6.60;;;;;;;23.11;55.21;99432.13;5089974;28;20206;-58
2022/08/05 04:59:34;;;;;;;7.37;6.77;;;;;;;23.08;55.05;99424.34;5089641;28;20299;-58
2022/08/05 05:02:02;;;;;;;9.73;6.77;;;;;;;23.15;55.99;99429.34;5089916;28;20611;-58
2022/08/05 05:04:29;;;;;;;8.70;6.83;;;;;;;23.18;56.21;99433.63;5090319;28;20222;-58
2022/08/05 05:06:56;;;;;;;8.68;6.80;;;;;;;23.14;56.41;99427.63;5089035;28;20443;-58
2022/08/05 05:09:23;;;;;;;7.47;6.77;;;;;;;23.30;56.12;99428.78;5089961;28;20233;-58
2022/08/05 05:11:49;;;;;;;7.80;7.00;;;;;;;23.39;55.86;99430.25;5089812;28;20198;-58
2022/08/05 05:14:16;;;;;;;8.73;7.23;;;;;;;23.44;54.98;99433.56;5089769;28;20191;-58
2022/08/05 05:16:43;;;;;;;6.70;6.10;;;;;;;23.45;55.31;99432.66;5089360;28;20190;-58
2022/08/05 05:19:11;;;;;;;7.27;6.57;;;;;;;23.46;55.40;99429.97;5089399;28;20578;-58
2022/08/05 05:21:38;;;;;;;7.13;6.23;;;;;;;23.49;55.67;99431.63;5089542;28;20195;-58
2022/08/05 05:24:05;;;;;;;6.77;6.17;;;;;;;23.55;55.02;99423.53;5089420;28;20195;-58
2022/08/05 05:26:32;;;;;;;7.00;6.30;;;;;;;23.67;54.55;99425.69;5089215;28;20673;-58
2022/08/05 05:28:59;;;;;;;7.77;6.47;;;;;;;23.78;53.70;99420.91;5089355;28;20705;-58
2022/08/05 05:31:26;;;;;;;10.40;6.80;;;;;;;23.81;53.47;99419.91;5089477;28;20669;-58
2022/08/05 05:33:53;;;;;;;7.83;6.93;;;;;;;23.90;53.68;99419.53;5089422;28;20191;-58
2022/08/05 05:36:21;;;;;;;8.33;7.00;;;;;;;23.87;53.55;99425.75;5089345;28;20191;-58
2022/08/05 05:38:48;;;;;;;8.63;6.70;;;;;;;23.93;53.21;99417.66;5089380;28;20187;-58
2022/08/05 05:41:15;;;;;;;8.33;6.37;;;;;;;24.00;53.18;99420.91;5089391;28;20199;-58
2022/08/05 05:43:41;;;;;;;11.10;6.10;;;;;;;24.11;52.70;99412.63;5089338;28;20191;-58
2022/08/05 05:46:08;;;;;;;7.53;6.50;;;;;;;24.31;52.22;99424.03;5089271;28;20195;-58
2022/08/05 05:48:35;;;;;;;7.63;6.77;;;;;;;24.45;51.63;99423.47;5089334;28;20219;-58
2022/08/05 05:51:02;;;;;;;9.38;5.85;;;;;;;24.57;50.95;99425.59;5088549;28;20432;-58
2022/08/05 05:53:30;;;;;;;7.07;5.50;;;;;;;24.70;50.26;99434.66;5089024;28;20197;-57
2022/08/05 05:55:57;;;;;;;6.37;5.83;;;;;;;24.84;50.12;99415.72;5089135;28;20565;-58
2022/08/05 05:58:24;;;;;;;6.17;5.67;;;;;;;24.91;49.67;99417.19;5089316;28;20226;-57
2022/08/05 06:00:51;;;;;;;6.60;6.00;;;;;;;24.98;49.47;99423.88;5089173;28;20581;-57
2022/08/05 06:03:17;;;;;;;7.00;6.30;;;;;;;25.00;49.07;99425.50;5089276;28;20252;-57
2022/08/05 06:05:44;;;;;;;6.23;5.73;;;;;;;25.11;48.45;99425.91;5089045;28;20191;-57
2022/08/05 06:08:11;;;;;;;6.67;5.73;;;;;;;25.15;48.42;99416.97;5089204;28;20187;-58
2022/08/05 06:10:39;;;;;;;8.57;5.80;;;;;;;25.23;48.74;99414.84;5089294;28;20194;-57
2022/08/05 06:13:06;;;;;;;8.53;6.57;;;;;;;25.25;48.05;99420.03;5092366;28;20195;-57
2022/08/05 06:15:33;;;;;;;7.90;5.90;;;;;;;25.32;48.28;99412.72;5091739;28;20443;-58
2022/08/05 06:18:00;;;;;;;6.43;5.53;;;;;;;25.47;47.47;99414.69;5092895;28;20195;-57
2022/08/05 06:20:26;;;;;;;8.07;6.20;;;;;;;25.57;47.18;99419.44;5092778;28;20187;-58
2022/08/05 06:22:53;;;;;;;6.80;6.17;;;;;;;25.60;47.12;99416.69;5092404;28;20195;-58
2022/08/05 06:25:20;;;;;;;6.60;6.00;;;;;;;25.68;46.79;99408.47;5092083;28;20190;-57
2022/08/05 06:27:48;;;;;;;8.17;6.17;;;;;;;25.82;46.96;99413.06;5092666;28;20191;-57
2022/08/05 06:30:15;;;;;;;6.77;6.20;;;;;;;25.95;45.66;99415.06;5092294;28;20225;-57
2022/08/05 06:32:43;;;;;;;6.30;5.70;;;;;;;26.07;45.21;99411.81;5092090;28;20625;-58
2022/08/05 06:35:10;;;;;;;7.67;5.97;;;;;;;26.14;45.26;99409.78;5092441;28;20190;-58
2022/08/05 06:37:37;;;;;;;7.73;5.70;;;;;;;26.15;45.11;99416.78;5092257;28;20206;-58
2022/08/05 06:40:05;;;;;;;7.30;5.87;;;;;;;26.24;45.18;99413.66;5092328;28;20183;-66
2022/08/05 06:42:32;;;;;;;7.03;6.43;;;;;;;26.32;45.33;99419.41;5092428;28;20214;-67
2022/08/05 06:45:00;;;;;;;6.40;5.90;;;;;;;26.38;44.92;99416.50;5092376;28;20191;-66
2022/08/05 06:47:27;;;;;;;6.80;6.20;;;;;;;26.53;44.65;99409.63;5092117;28;20195;-66
2022/08/05 06:49:53;;;;;;;6.43;5.90;;;;;;;26.52;44.94;99413.16;5091766;28;20210;-66
2022/08/05 06:52:20;;;;;;;6.67;6.17;;;;;;;26.61;44.74;99410.94;5091987;28;20596;-65
2022/08/05 06:54:47;;;;;;;8.00;7.20;;;;;;;26.73;44.73;99414.72;5091713;28;20187;-66
2022/08/05 06:57:16;;;;;;;7.13;6.60;;;;;;;26.79;45.40;99409.16;5091805;28;20237;-64
2022/08/05 06:59:43;;;;;;;7.65;6.90;;;;;;;26.87;45.08;99413.13;5090969;28;20424;-66
2022/08/05 07:02:12;;;;;;;6.37;5.87;;;;;;;27.01;43.85;99408.91;5091627;28;20187;-65
2022/08/05 07:04:38;;;;;;;6.75;6.25;;;;;;;27.12;43.96;99411.84;5091761;28;20574;-66
2022/08/05 07:07:05;;;;;;;8.02;7.32;;;;;;;27.20;43.94;99415.78;5091475;28;20191;-65
2022/08/05 07:09:32;;;;;;;7.20;6.50;;;;;;;27.38;43.78;99411.34;5091474;28;20222;-66
2022/08/05 07:11:59;;;;;;;9.52;6.43;;;;;;;27.47;43.42;99413.50;5091518;28;20205;-65
2022/08/05 07:17:10;;;;;;;7.68;6.97;;;;;;;27.67;43.72;99415.06;5091078;28;20692;-66
2022/08/05 07:19:38;;;;;;;7.95;6.95;;;;;;;27.83;43.21;99415.91;5091051;28;20199;-66
2022/08/05 07:22:05;;;;;;;7.55;6.78;;;;;;;27.89;42.95;99405.88;5091049;28;20669;-65
2022/08/05 07:24:32;;;;;;;6.88;6.22;;;;;;;27.93;43.42;99406.56;5090462;28;20440;-67
2022/08/05 07:26:59;;;;;;;6.97;5.93;;;;;;;28.09;43.06;99410.06;5091031;28;20191;-65
2022/08/05 07:29:25;;;;;;;7.60;6.28;;;;;;;28.18;43.06;99409.56;5090871;28;20219;-66
2022/08/05 07:31:52;;;;;;;8.25;6.57;;;;;;;28.23;42.91;99404.00;5090796;28;20244;-66
2022/08/05 07:34:19;;;;;;;6.70;6.10;;;;;;;28.33;42.91;99403.38;5091114;28;20175;-66
2022/08/05 07:36:47;;;;;;;6.80;6.05;;;;;;;28.44;42.76;99406.25;5091031;28;20219;-66
2022/08/05 07:39:14;;;;;;;7.40;6.63;;;;;;;28.57;42.70;99401.09;5090628;28;20191;-66
2022/08/05 07:41:41;;;;;;;9.07;6.60;;;;;;;28.63;43.19;99401.63;5090414;28;20190;-66
2022/08/05 07:44:10;;;;;;;8.85;6.85;;;;;;;28.70;42.03;99401.28;5090929;28;20191;-64
2022/08/05 07:46:36;;;;;;;10.18;6.63;;;;;;;28.78;41.85;99404.31;5090777;28;20267;-66
2022/08/05 07:49:04;;;;;;;7.25;6.75;;;;;;;28.80;41.39;99397.13;5090835;28;20221;-66
2022/08/05 07:51:31;;;;;;;7.25;6.65;;;;;;;28.90;41.82;99395.66;5091031;28;20643;-65
2022/08/05 07:53:59;;;;;;;10.05;6.90;;;;;;;28.96;41.54;99388.19;5090534;28;20278;-65
2022/08/05 07:56:26;;;;;;;6.60;6.00;;;;;;;29.03;41.24;99396.63;5090462;28;20565;-65
2022/08/05 07:58:53;;;;;;;7.78;6.57;;;;;;;29.05;40.47;99389.44;5090548;28;20223;-66
2022/08/05 08:01:20;;;;;;;9.05;6.30;;;;;;;29.15;41.03;99388.75;5090392;28;20198;-66
2022/08/05 08:03:47;;;;;;;7.43;6.72;;;;;;;29.24;40.96;99392.69;5090878;28;20231;-66
2022/08/05 08:06:14;;;;;;;8.23;6.90;;;;;;;29.19;40.36;99392.09;5090469;28;20195;-66
2022/08/05 08:08:41;;;;;;;6.70;6.10;;;;;;;29.24;40.69;99384.75;5090347;28;20198;-66
2022/08/05 08:11:09;;;;;;;6.68;6.05;;;;;;;29.26;40.54;99385.47;5090308;28;20190;-65
2022/08/05 08:13:36;;;;;;;7.03;6.43;;;;;;;29.31;40.95;99383.41;5090490;28;20187;-66
2022/08/05 08:16:03;;;;;;;6.53;6.03;;;;;;;29.37;40.52;99388.31;5090710;28;20191;-66
2022/08/05 08:18:30;;;;;;;7.68;5.82;;;;;;;29.37;39.88;99388.31;5090570;28;20203;-66
2022/08/05 08:20:57;;;;;;;6.60;6.10;;;;;;;29.35;39.87;99382.28;5090324;28;20190;-66
2022/08/05 08:23:24;;;;;;;6.80;6.18;;;;;;;29.49;39.74;99381.41;5090006;28;20191;-66
2022/08/05 08:25:50;;;;;;;7.05;6.35;;;;;;;29.61;40.22;99384.13;5090318;28;20244;-66
2022/08/05 08:28:19;;;;;;;6.97;6.38;;;;;;;29.65;40.28;99380.34;5089953;28;20187;-66
2022/08/05 08:30:46;;;;;;;7.85;6.35;;;;;;;29.73;39.62;99378.06;5090261;28;20269;-66
2022/08/05 08:33:13;;;;;;;6.15;5.57;;;;;;;29.93;38.79;99375.97;5090019;28;20198;-66
2022/08/05 08:35:40;;;;;;;6.03;5.63;;;;;;;30.06;38.99;99366.25;5089540;28;20249;-67
2022/08/05 08:38:07;;;;;;;7.47;6.57;;;;;;;30.19;39.04;99375.13;5089999;28;20241;-67
2022/08/05 08:40:35;;;;;;;7.57;6.30;;;;;;;30.27;39.37;99364.88;5089570;28;20201;-67
2022/08/05 08:43:03;;;;;;;6.82;6.15;;;;;;;30.37;38.32;99363.31;5089796;28;20821;-67
2022/08/05 08:45:32;;;;;;;6.97;6.38;;;;;;;30.43;38.09;99364.72;5089572;28;20281;-66
2022/08/05 08:48:03;;;;;;;6.30;5.80;;;;;;;30.32;35.84;99331.78;5089568;28;20198;-66
2022/08/05 08:50:32;;;;;;;7.93;6.05;;;;;;;30.60;36.19;99359.97;5089329;28;20226;-66
2022/08/05 08:53:04;;;;;;;5.97;5.43;;;;;;;30.69;36.02;99359.34;5089560;28;20195;-66
2022/08/05 08:55:31;;;;;;;9.65;6.00;;;;;;;30.82;37.13;99354.88;5089584;28;20199;-66
2022/08/05 08:57:59;;;;;;;5.68;5.18;;;;;;;30.83;36.03;99345.97;5089306;28;20712;-67
2022/08/05 09:00:26;;;;;;;7.53;5.82;;;;;;;30.90;36.36;99344.59;5089192;28;20187;-66
2022/08/05 09:02:56;;;;;;;9.77;5.53;;;;;;;30.93;35.19;99346.25;5089037;28;20203;-66
2022/08/05 09:05:24;;;;;;;5.88;5.47;;;;;;;30.94;34.90;99335.50;5089064;28;20657;-67
2022/08/05 09:07:51;;;;;;;5.38;4.88;;;;;;;31.02;34.75;99350.03;5089919;28;20195;-66
2022/08/05 09:10:18;;;;;;;5.25;4.85;;;;;;;31.10;34.11;99339.72;5089911;28;20220;-66
2022/08/05 09:12:45;;;;;;;7.03;5.38;;;;;;;31.20;34.41;99339.00;5089703;28;20252;-67
2022/08/05 09:15:12;;;;;;;6.68;5.00;;;;;;;31.30;34.36;99326.75;5089926;28;20195;-67
2022/08/05 09:17:40;;;;;;;5.65;5.07;;;;;;;31.32;33.48;99327.50;5089663;28;20190;-67
2022/08/05 09:20:11;;;;;;;4.75;4.35;;;;;;;31.36;32.16;99325.47;5089673;28;20675;-66
2022/08/05 09:23:04;;;;;;;5.30;4.80;;;;;;;31.42;32.64;99325.03;5089217;28;20867;-66
2022/08/05 09:25:31;;;;;;;6.90;5.07;;;;;;;31.30;32.21;99324.09;5089579;28;20203;-66
2022/08/05 09:28:09;;;;;;;4.72;4.40;;;;;;;31.40;32.21;99319.81;5089568;28;20209;-67
2022/08/05 09:30:36;;;;;;;4.35;4.05;;;;;;;31.53;32.09;99319.84;5089561;28;20287;-65
2022/08/05 09:33:03;;;;;;;5.35;4.85;;;;;;;31.45;32.04;99311.53;5089301;28;20194;-65
2022/08/05 09:35:32;;;;;;;5.10;4.70;;;;;;;31.40;31.96;99305.69;5089970;28;20206;-65
2022/08/05 09:37:59;;;;;;;4.60;4.20;;;;;;;31.43;31.21;99313.44;5089244;28;20191;-64
2022/08/05 09:40:31;;;;;;;4.78;4.35;;;;;;;31.38;32.02;99273.09;5089172;28;20724;-64
2022/08/05 09:42:58;;;;;;;5.10;4.70;;;;;;;31.44;31.92;99259.38;5088381;28;20482;-65
2022/08/05 09:45:37;;;;;;;4.38;3.97;;;;;;;31.92;31.77;99306.25;5088980;28;20244;-65
2022/08/05 09:48:19;;;;;;;5.05;4.53;;;;;;;31.80;30.76;99291.25;5093082;28;20194;-65
2022/08/05 09:50:52;;;;;;;5.10;4.70;;;;;;;31.94;31.12;99300.84;5092931;28;20214;-68
2022/08/05 09:53:19;;;;;;;5.85;4.28;;;;;;;32.04;30.51;99294.75;5093026;28;20191;-66
2022/08/05 09:55:46;;;;;;;5.32;4.93;;;;;;;32.06;31.53;99287.50;5092818;28;20538;-66
2022/08/05 09:58:15;;;;;;;4.72;4.32;;;;;;;31.92;30.61;99287.66;5092954;28;20222;-66
2022/08/05 10:00:53;;;;;;;5.07;4.65;;;;;;;32.10;30.96;99294.31;5093247;28;20191;-65
2022/08/05 10:03:21;;;;;;;5.75;5.18;;;;;;;32.28;31.00;99286.72;5092770;28;20191;-66
2022/08/05 10:06:02;;;;;;;4.90;4.40;;;;;;;32.23;30.55;99283.59;5092601;28;20190;-66
2022/08/05 10:08:29;;;;;;;4.80;4.45;;;;;;;32.34;30.98;99277.44;5092957;28;20195;-66
2022/08/05 10:10:56;;;;;;;6.22;5.13;;;;;;;32.43;30.15;99269.63;5092972;28;20241;-66
2022/08/05 10:13:28;;;;;;;5.07;4.68;;;;;;;32.56;30.62;99272.19;5092808;28;20202;-66
2022/08/05 10:15:57;;;;;;;6.00;4.63;;;;;;;32.67;30.26;99273.06;5092589;28;20680;-65
2022/08/05 10:18:26;;;;;;;5.45;4.85;;;;;;;32.58;29.79;99273.78;5092346;28;20191;-66
2022/08/05 10:20:55;;;;;;;5.53;4.90;;;;;;;32.66;30.27;99267.88;5092348;28;20255;-66
2022/08/05 10:23:27;;;;;;;5.20;4.70;;;;;;;32.82;29.94;99265.72;5092167;28;20699;-65
2022/08/05 10:25:55;;;;;;;4.47;4.18;;;;;;;32.84;29.17;99262.91;5092248;28;20191;-66
2022/08/05 10:28:22;;;;;;;5.05;4.65;;;;;;;32.90;28.86;99268.63;5092506;28;20244;-66
2022/08/05 10:30:49;;;;;;;5.00;4.50;;;;;;;32.80;29.36;99264.97;5092184;28;20215;-65
2022/08/05 10:33:17;;;;;;;4.82;4.43;;;;;;;32.53;29.41;99259.09;5091795;28;20202;-66
2022/08/05 10:35:44;;;;;;;6.43;5.00;;;;;;;32.53;29.78;99264.41;5091876;28;20641;-65
2022/08/05 10:38:12;;;;;;;5.10;4.70;;;;;;;32.73;29.69;99257.59;5092085;28;20203;-65
2022/08/05 10:40:46;;;;;;;5.88;5.05;;;;;;;32.77;29.18;99256.38;5091479;28;20577;-65
2022/08/05 10:43:31;;;;;;;7.45;4.47;;;;;;;32.91;29.26;99254.31;5091416;28;20678;-65
2022/08/05 10:45:59;;;;;;;4.90;4.50;;;;;;;33.02;29.36;99245.50;5091819;28;20294;-64
2022/08/05 10:48:30;;;;;;;5.65;4.70;;;;;;;32.88;29.34;99253.72;5091854;28;20191;-65
2022/08/05 10:51:00;;;;;;;5.20;4.80;;;;;;;32.85;29.62;99248.66;5091560;28;20788;-66
2022/08/05 10:53:35;;;;;;;5.30;4.28;;;;;;;33.09;28.81;99234.25;5090102;28;20459;-66
2022/08/05 10:56:06;;;;;;;5.50;4.63;;;;;;;33.19;28.58;99234.34;5091250;28;20297;-66
2022/08/05 10:58:33;;;;;;;7.18;4.75;;;;;;;33.37;28.64;99237.34;5090473;28;20654;-65
2022/08/05 11:01:03;;;;;;;5.55;4.72;;;;;;;33.50;28.62;99230.03;5091549;28;20273;-65
2022/08/05 11:03:30;;;;;;;5.57;5.07;;;;;;;33.39;28.90;99227.41;5091112;28;20202;-65
2022/08/05 11:06:08;;;;;;;4.88;4.38;;;;;;;33.28;29.05;99228.28;5091040;28;20195;-65
2022/08/05 11:08:35;;;;;;;4.78;4.45;;;;;;;33.51;28.92;99226.41;5090817;28;20588;-65
2022/08/05 11:11:37;;;;;;;5.40;4.38;;;;;;;33.72;28.58;99227.34;5090611;28;20211;-65
2022/08/05 11:14:04;;;;;;;6.97;4.88;;;;;;;33.81;28.03;99223.91;5048680;28;20202;-65
2022/08/05 11:16:31;;;;;;;5.70;5.20;;;;;;;33.90;27.95;99216.97;5048021;28;20203;-65
2022/08/05 11:19:27;;;;;;;4.90;4.50;;;;;;;34.16;27.66;99212.97;5068028;28;20186;-65
2022/08/05 11:21:55;;;;;;;4.75;4.45;;;;;;;33.70;27.71;99213.28;5091258;28;20191;-65
2022/08/05 11:24:22;;;;;;;4.50;4.20;;;;;;;33.84;27.72;99205.00;5091186;28;20576;-64
2022/08/05 11:27:30;;;;;;;4.65;4.25;;;;;;;33.91;28.40;99202.63;5091082;28;20214;-65
2022/08/05 11:30:01;;;;;;;10.48;9.57;;;;;;;34.19;29.22;99200.22;5091395;28;20610;-65
2022/08/05 11:32:29;;;;;;;6.25;5.63;;;;;;;34.40;28.04;99195.69;5090761;28;20186;-65
2022/08/05 11:34:57;;;;;;;5.25;4.85;;;;;;;34.61;27.52;99193.00;5090710;28;20616;-66
2022/08/05 11:38:03;;;;;;;6.65;5.30;;;;;;;34.77;27.21;99193.38;5091040;28;20296;-66
2022/08/05 11:40:58;;;;;;;4.80;4.40;;;;;;;34.72;26.22;99190.25;5090992;28;20247;-66
2022/08/05 11:43:27;;;;;;;5.20;4.57;;;;;;;34.61;26.55;99185.00;5090975;28;20191;-66